Gatewood, Missouri
Current Conditions -  °F | °C
As of 8:35 AM on Thursday 23 Oct 2014 (Local Time) from KARG Reporting Station
Clear Clear  
Wind Chill: 44°   Ceiling: Unl
Heat Index: 46°   Visibility: 8mi
Dew Point: 41°   Wind: 5mph
Humidity: 81%   Direction: 40°NE
Pressure: 30.23"   Gusts: NA
Location:  36.58°N, 91.09°W
Report Text: KARG 231335Z AUTO 04004KT 8SM CLR 08/05 A3023 RMK AO1
Loading
Personal Weather Stations






























Interactive Weather Map New forecast layout! Learn more

10-Day Weather Forecast

Advertisements
Track Severe Weather on mobile